sensor_id;sensor_type;location;lat;lon;timestamp;P1;durP1;ratioP1;P2;durP2;ratioP2
65377;SDS011;51982;51.042;13.806;2023-06-26T00:00:19;7.88;;;4.57;;
65377;SDS011;51982;51.042;13.806;2023-06-26T00:02:44;5.40;;;4.70;;
65377;SDS011;51982;51.042;13.806;2023-06-26T00:05:09;7.65;;;4.88;;
65377;SDS011;51982;51.042;13.806;2023-06-26T00:07:35;4.78;;;4.28;;
65377;SDS011;51982;51.042;13.806;2023-06-26T00:10:01;8.15;;;4.45;;
65377;SDS011;51982;51.042;13.806;2023-06-26T00:12:27;6.15;;;4.45;;
65377;SDS011;51982;51.042;13.806;2023-06-26T00:14:53;7.95;;;4.68;;
65377;SDS011;51982;51.042;13.806;2023-06-26T00:17:18;6.13;;;4.43;;
65377;SDS011;51982;51.042;13.806;2023-06-26T00:19:44;5.53;;;4.50;;
65377;SDS011;51982;51.042;13.806;2023-06-26T00:22:09;6.37;;;4.47;;
65377;SDS011;51982;51.042;13.806;2023-06-26T00:24:34;5.77;;;4.57;;
65377;SDS011;51982;51.042;13.806;2023-06-26T00:26:59;5.30;;;4.50;;
65377;SDS011;51982;51.042;13.806;2023-06-26T00:29:24;9.13;;;4.68;;
65377;SDS011;51982;51.042;13.806;2023-06-26T00:31:50;6.03;;;4.80;;
65377;SDS011;51982;51.042;13.806;2023-06-26T00:34:15;7.20;;;4.82;;
65377;SDS011;51982;51.042;13.806;2023-06-26T00:36:40;6.50;;;4.72;;
65377;SDS011;51982;51.042;13.806;2023-06-26T00:39:08;5.50;;;4.20;;
65377;SDS011;51982;51.042;13.806;2023-06-26T00:41:34;8.85;;;4.65;;
65377;SDS011;51982;51.042;13.806;2023-06-26T00:43:59;5.37;;;4.57;;
65377;SDS011;51982;51.042;13.806;2023-06-26T00:46:24;6.90;;;4.47;;
65377;SDS011;51982;51.042;13.806;2023-06-26T00:48:50;6.15;;;4.70;;
65377;SDS011;51982;51.042;13.806;2023-06-26T00:51:15;7.47;;;4.72;;
65377;SDS011;51982;51.042;13.806;2023-06-26T00:53:41;5.53;;;4.47;;
65377;SDS011;51982;51.042;13.806;2023-06-26T00:56:07;5.32;;;4.78;;
65377;SDS011;51982;51.042;13.806;2023-06-26T00:58:33;6.30;;;4.70;;
65377;SDS011;51982;51.042;13.806;2023-06-26T01:00:58;8.43;;;4.83;;
65377;SDS011;51982;51.042;13.806;2023-06-26T01:03:24;8.32;;;4.97;;
65377;SDS011;51982;51.042;13.806;2023-06-26T01:05:50;8.20;;;4.72;;
65377;SDS011;51982;51.042;13.806;2023-06-26T01:08:17;6.82;;;4.78;;
65377;SDS011;51982;51.042;13.806;2023-06-26T01:10:44;8.23;;;5.03;;
65377;SDS011;51982;51.042;13.806;2023-06-26T01:13:10;7.93;;;5.05;;
65377;SDS011;51982;51.042;13.806;2023-06-26T01:15:36;6.82;;;4.82;;
65377;SDS011;51982;51.042;13.806;2023-06-26T01:18:02;7.70;;;4.67;;
65377;SDS011;51982;51.042;13.806;2023-06-26T01:20:31;6.13;;;4.55;;
65377;SDS011;51982;51.042;13.806;2023-06-26T01:23:17;5.63;;;4.50;;
65377;SDS011;51982;51.042;13.806;2023-06-26T01:25:56;9.27;;;4.68;;
65377;SDS011;51982;51.042;13.806;2023-06-26T01:28:35;6.05;;;4.85;;
65377;SDS011;51982;51.042;13.806;2023-06-26T01:31:05;6.80;;;4.63;;
65377;SDS011;51982;51.042;13.806;2023-06-26T01:33:31;6.72;;;4.90;;
65377;SDS011;51982;51.042;13.806;2023-06-26T01:35:57;6.28;;;5.10;;
65377;SDS011;51982;51.042;13.806;2023-06-26T01:38:22;6.65;;;4.60;;
65377;SDS011;51982;51.042;13.806;2023-06-26T01:40:48;7.20;;;5.10;;
65377;SDS011;51982;51.042;13.806;2023-06-26T01:43:18;7.78;;;4.95;;
65377;SDS011;51982;51.042;13.806;2023-06-26T01:45:50;5.88;;;4.70;;
65377;SDS011;51982;51.042;13.806;2023-06-26T01:48:19;9.82;;;5.30;;
65377;SDS011;51982;51.042;13.806;2023-06-26T01:50:48;7.03;;;4.80;;
65377;SDS011;51982;51.042;13.806;2023-06-26T01:53:17;5.85;;;4.85;;
65377;SDS011;51982;51.042;13.806;2023-06-26T01:55:49;7.25;;;5.10;;
65377;SDS011;51982;51.042;13.806;2023-06-26T01:58:17;7.47;;;4.97;;
65377;SDS011;51982;51.042;13.806;2023-06-26T02:00:47;7.65;;;4.50;;
65377;SDS011;51982;51.042;13.806;2023-06-26T02:03:12;6.13;;;5.03;;
65377;SDS011;51982;51.042;13.806;2023-06-26T02:05:38;6.30;;;4.97;;
65377;SDS011;51982;51.042;13.806;2023-06-26T02:08:03;6.05;;;4.70;;
65377;SDS011;51982;51.042;13.806;2023-06-26T02:10:29;7.90;;;4.80;;
65377;SDS011;51982;51.042;13.806;2023-06-26T02:12:54;6.68;;;4.80;;
65377;SDS011;51982;51.042;13.806;2023-06-26T02:15:20;6.20;;;5.10;;
65377;SDS011;51982;51.042;13.806;2023-06-26T02:17:45;8.95;;;5.03;;
65377;SDS011;51982;51.042;13.806;2023-06-26T02:20:13;10.90;;;4.90;;
65377;SDS011;51982;51.042;13.806;2023-06-26T02:22:38;7.03;;;4.63;;
65377;SDS011;51982;51.042;13.806;2023-06-26T02:25:04;7.77;;;4.73;;
65377;SDS011;51982;51.042;13.806;2023-06-26T02:27:29;7.38;;;5.00;;
65377;SDS011;51982;51.042;13.806;2023-06-26T02:29:54;6.30;;;4.83;;
65377;SDS011;51982;51.042;13.806;2023-06-26T02:32:20;9.48;;;4.72;;
65377;SDS011;51982;51.042;13.806;2023-06-26T02:34:45;8.13;;;4.97;;
65377;SDS011;51982;51.042;13.806;2023-06-26T02:37:10;6.38;;;4.85;;
65377;SDS011;51982;51.042;13.806;2023-06-26T02:39:35;11.60;;;5.27;;
65377;SDS011;51982;51.042;13.806;2023-06-26T02:42:01;7.10;;;4.90;;
65377;SDS011;51982;51.042;13.806;2023-06-26T02:44:26;6.38;;;4.45;;
65377;SDS011;51982;51.042;13.806;2023-06-26T02:46:52;6.87;;;4.73;;
65377;SDS011;51982;51.042;13.806;2023-06-26T02:49:17;6.30;;;4.90;;
65377;SDS011;51982;51.042;13.806;2023-06-26T02:51:42;6.70;;;4.70;;
65377;SDS011;51982;51.042;13.806;2023-06-26T02:54:07;6.50;;;5.23;;
65377;SDS011;51982;51.042;13.806;2023-06-26T02:56:32;8.70;;;5.10;;
65377;SDS011;51982;51.042;13.806;2023-06-26T02:58:58;8.15;;;4.88;;
65377;SDS011;51982;51.042;13.806;2023-06-26T03:01:23;6.00;;;5.20;;
65377;SDS011;51982;51.042;13.806;2023-06-26T03:03:49;8.07;;;5.40;;
65377;SDS011;51982;51.042;13.806;2023-06-26T03:06:15;6.57;;;4.97;;
65377;SDS011;51982;51.042;13.806;2023-06-26T03:08:40;9.75;;;4.78;;
65377;SDS011;51982;51.042;13.806;2023-06-26T03:11:09;7.68;;;5.15;;
65377;SDS011;51982;51.042;13.806;2023-06-26T03:13:34;7.75;;;5.55;;
65377;SDS011;51982;51.042;13.806;2023-06-26T03:16:00;7.55;;;5.20;;
65377;SDS011;51982;51.042;13.806;2023-06-26T03:18:26;8.10;;;5.38;;
65377;SDS011;51982;51.042;13.806;2023-06-26T03:20:52;7.60;;;5.13;;
65377;SDS011;51982;51.042;13.806;2023-06-26T03:23:19;6.38;;;5.05;;
65377;SDS011;51982;51.042;13.806;2023-06-26T03:25:45;8.50;;;5.15;;
65377;SDS011;51982;51.042;13.806;2023-06-26T03:28:10;6.28;;;5.20;;
65377;SDS011;51982;51.042;13.806;2023-06-26T03:30:35;7.38;;;5.18;;
65377;SDS011;51982;51.042;13.806;2023-06-26T03:33:00;7.67;;;5.17;;
65377;SDS011;51982;51.042;13.806;2023-06-26T03:35:26;8.00;;;4.40;;
65377;SDS011;51982;51.042;13.806;2023-06-26T03:37:51;7.07;;;5.23;;
65377;SDS011;51982;51.042;13.806;2023-06-26T03:40:16;10.13;;;4.97;;
65377;SDS011;51982;51.042;13.806;2023-06-26T03:42:42;8.70;;;4.83;;
65377;SDS011;51982;51.042;13.806;2023-06-26T03:45:07;12.13;;;5.22;;
65377;SDS011;51982;51.042;13.806;2023-06-26T03:47:33;9.57;;;5.65;;
65377;SDS011;51982;51.042;13.806;2023-06-26T03:49:58;6.90;;;5.15;;
65377;SDS011;51982;51.042;13.806;2023-06-26T03:52:23;6.43;;;4.78;;
65377;SDS011;51982;51.042;13.806;2023-06-26T03:54:49;8.43;;;5.45;;
65377;SDS011;51982;51.042;13.806;2023-06-26T03:57:14;8.52;;;5.07;;
65377;SDS011;51982;51.042;13.806;2023-06-26T03:59:39;6.65;;;4.80;;
65377;SDS011;51982;51.042;13.806;2023-06-26T04:02:04;5.90;;;4.80;;
65377;SDS011;51982;51.042;13.806;2023-06-26T04:04:30;9.65;;;5.03;;
65377;SDS011;51982;51.042;13.806;2023-06-26T04:06:55;8.90;;;5.10;;
65377;SDS011;51982;51.042;13.806;2023-06-26T04:09:20;7.55;;;5.00;;
65377;SDS011;51982;51.042;13.806;2023-06-26T04:11:46;6.75;;;5.32;;
65377;SDS011;51982;51.042;13.806;2023-06-26T04:14:11;12.10;;;5.47;;
65377;SDS011;51982;51.042;13.806;2023-06-26T04:16:36;7.05;;;4.80;;
65377;SDS011;51982;51.042;13.806;2023-06-26T04:19:01;8.17;;;4.83;;
65377;SDS011;51982;51.042;13.806;2023-06-26T04:21:27;10.23;;;5.20;;
65377;SDS011;51982;51.042;13.806;2023-06-26T04:23:52;6.63;;;5.00;;
65377;SDS011;51982;51.042;13.806;2023-06-26T04:26:18;10.27;;;5.00;;
65377;SDS011;51982;51.042;13.806;2023-06-26T04:28:43;10.57;;;5.13;;
65377;SDS011;51982;51.042;13.806;2023-06-26T04:31:08;7.47;;;4.87;;
65377;SDS011;51982;51.042;13.806;2023-06-26T04:33:34;13.00;;;5.20;;
65377;SDS011;51982;51.042;13.806;2023-06-26T04:36:01;9.90;;;5.03;;
65377;SDS011;51982;51.042;13.806;2023-06-26T04:38:28;10.65;;;4.68;;
65377;SDS011;51982;51.042;13.806;2023-06-26T04:40:54;7.43;;;4.93;;
65377;SDS011;51982;51.042;13.806;2023-06-26T04:43:19;8.93;;;4.80;;
65377;SDS011;51982;51.042;13.806;2023-06-26T04:45:44;7.97;;;5.10;;
65377;SDS011;51982;51.042;13.806;2023-06-26T04:48:10;8.68;;;4.82;;
65377;SDS011;51982;51.042;13.806;2023-06-26T04:50:35;12.63;;;5.00;;
65377;SDS011;51982;51.042;13.806;2023-06-26T04:53:00;6.60;;;4.80;;
65377;SDS011;51982;51.042;13.806;2023-06-26T04:55:26;8.52;;;4.72;;
65377;SDS011;51982;51.042;13.806;2023-06-26T04:57:51;7.35;;;5.15;;
65377;SDS011;51982;51.042;13.806;2023-06-26T05:00:16;8.07;;;5.22;;
65377;SDS011;51982;51.042;13.806;2023-06-26T05:02:42;6.95;;;5.18;;
65377;SDS011;51982;51.042;13.806;2023-06-26T05:05:07;9.35;;;4.50;;
65377;SDS011;51982;51.042;13.806;2023-06-26T05:07:33;7.03;;;5.05;;
65377;SDS011;51982;51.042;13.806;2023-06-26T05:09:58;6.50;;;4.63;;
65377;SDS011;51982;51.042;13.806;2023-06-26T05:12:23;6.70;;;4.30;;
65377;SDS011;51982;51.042;13.806;2023-06-26T05:14:49;8.88;;;5.20;;
65377;SDS011;51982;51.042;13.806;2023-06-26T05:17:14;7.23;;;4.73;;
65377;SDS011;51982;51.042;13.806;2023-06-26T05:19:39;6.85;;;4.60;;
65377;SDS011;51982;51.042;13.806;2023-06-26T05:22:05;10.25;;;5.18;;
65377;SDS011;51982;51.042;13.806;2023-06-26T05:24:35;8.45;;;4.38;;
65377;SDS011;51982;51.042;13.806;2023-06-26T05:27:01;15.15;;;5.15;;
65377;SDS011;51982;51.042;13.806;2023-06-26T05:29:27;9.85;;;4.72;;
65377;SDS011;51982;51.042;13.806;2023-06-26T05:31:53;7.65;;;4.55;;
65377;SDS011;51982;51.042;13.806;2023-06-26T05:34:20;6.53;;;4.97;;
65377;SDS011;51982;51.042;13.806;2023-06-26T05:36:47;8.30;;;4.80;;
65377;SDS011;51982;51.042;13.806;2023-06-26T05:39:15;5.53;;;4.25;;
65377;SDS011;51982;51.042;13.806;2023-06-26T05:41:41;8.90;;;4.35;;
65377;SDS011;51982;51.042;13.806;2023-06-26T05:44:06;10.57;;;4.28;;
65377;SDS011;51982;51.042;13.806;2023-06-26T05:46:31;8.30;;;4.50;;
65377;SDS011;51982;51.042;13.806;2023-06-26T05:48:57;6.95;;;4.43;;
65377;SDS011;51982;51.042;13.806;2023-06-26T05:51:22;7.53;;;4.30;;
65377;SDS011;51982;51.042;13.806;2023-06-26T05:53:48;10.13;;;4.20;;
65377;SDS011;51982;51.042;13.806;2023-06-26T05:56:14;7.35;;;4.50;;
65377;SDS011;51982;51.042;13.806;2023-06-26T05:58:40;7.70;;;4.85;;
65377;SDS011;51982;51.042;13.806;2023-06-26T06:01:06;7.30;;;4.47;;
65377;SDS011;51982;51.042;13.806;2023-06-26T06:03:31;6.77;;;4.50;;
65377;SDS011;51982;51.042;13.806;2023-06-26T06:05:57;6.63;;;4.70;;
65377;SDS011;51982;51.042;13.806;2023-06-26T06:08:22;5.57;;;4.18;;
65377;SDS011;51982;51.042;13.806;2023-06-26T06:10:47;5.68;;;4.28;;
65377;SDS011;51982;51.042;13.806;2023-06-26T06:13:12;8.43;;;4.70;;
65377;SDS011;51982;51.042;13.806;2023-06-26T06:15:38;5.50;;;3.83;;
65377;SDS011;51982;51.042;13.806;2023-06-26T06:18:03;5.13;;;3.80;;
65377;SDS011;51982;51.042;13.806;2023-06-26T06:20:28;6.03;;;3.78;;
65377;SDS011;51982;51.042;13.806;2023-06-26T06:22:53;6.03;;;3.60;;
65377;SDS011;51982;51.042;13.806;2023-06-26T06:25:19;6.47;;;4.00;;
65377;SDS011;51982;51.042;13.806;2023-06-26T06:27:44;5.60;;;3.70;;
65377;SDS011;51982;51.042;13.806;2023-06-26T06:30:09;6.32;;;3.75;;
65377;SDS011;51982;51.042;13.806;2023-06-26T06:32:35;5.43;;;3.78;;
65377;SDS011;51982;51.042;13.806;2023-06-26T06:35:00;5.93;;;3.60;;
65377;SDS011;51982;51.042;13.806;2023-06-26T06:37:33;5.37;;;3.70;;
65377;SDS011;51982;51.042;13.806;2023-06-26T06:39:58;6.33;;;3.40;;
65377;SDS011;51982;51.042;13.806;2023-06-26T06:42:24;6.80;;;3.67;;
65377;SDS011;51982;51.042;13.806;2023-06-26T06:44:49;6.83;;;3.77;;
65377;SDS011;51982;51.042;13.806;2023-06-26T06:47:14;5.37;;;3.70;;
65377;SDS011;51982;51.042;13.806;2023-06-26T06:49:40;5.83;;;4.43;;
65377;SDS011;51982;51.042;13.806;2023-06-26T06:52:05;5.40;;;3.70;;
65377;SDS011;51982;51.042;13.806;2023-06-26T06:54:30;4.72;;;3.50;;
65377;SDS011;51982;51.042;13.806;2023-06-26T06:56:55;6.47;;;3.67;;
65377;SDS011;51982;51.042;13.806;2023-06-26T06:59:21;7.73;;;3.90;;
65377;SDS011;51982;51.042;13.806;2023-06-26T07:01:46;7.50;;;3.80;;
65377;SDS011;51982;51.042;13.806;2023-06-26T07:04:11;4.70;;;3.40;;
65377;SDS011;51982;51.042;13.806;2023-06-26T07:06:36;5.30;;;3.67;;
65377;SDS011;51982;51.042;13.806;2023-06-26T07:09:02;8.27;;;3.90;;
65377;SDS011;51982;51.042;13.806;2023-06-26T07:11:27;6.30;;;3.60;;
65377;SDS011;51982;51.042;13.806;2023-06-26T07:13:53;6.27;;;3.63;;
65377;SDS011;51982;51.042;13.806;2023-06-26T07:16:18;9.23;;;3.57;;
65377;SDS011;51982;51.042;13.806;2023-06-26T07:18:43;7.75;;;3.45;;
65377;SDS011;51982;51.042;13.806;2023-06-26T07:21:08;5.10;;;3.35;;
65377;SDS011;51982;51.042;13.806;2023-06-26T07:23:33;7.30;;;3.50;;
65377;SDS011;51982;51.042;13.806;2023-06-26T07:25:59;5.33;;;3.70;;
65377;SDS011;51982;51.042;13.806;2023-06-26T07:28:24;4.90;;;3.17;;
65377;SDS011;51982;51.042;13.806;2023-06-26T07:30:49;5.10;;;3.93;;
65377;SDS011;51982;51.042;13.806;2023-06-26T07:33:14;4.93;;;3.93;;
65377;SDS011;51982;51.042;13.806;2023-06-26T07:35:40;6.27;;;4.03;;
65377;SDS011;51982;51.042;13.806;2023-06-26T07:38:05;6.03;;;3.63;;
65377;SDS011;51982;51.042;13.806;2023-06-26T07:40:30;4.23;;;3.60;;
65377;SDS011;51982;51.042;13.806;2023-06-26T07:42:55;5.20;;;3.75;;
65377;SDS011;51982;51.042;13.806;2023-06-26T07:45:23;4.60;;;3.60;;
65377;SDS011;51982;51.042;13.806;2023-06-26T07:47:48;8.77;;;3.93;;
65377;SDS011;51982;51.042;13.806;2023-06-26T07:50:13;4.30;;;3.55;;
65377;SDS011;51982;51.042;13.806;2023-06-26T07:52:44;5.63;;;3.67;;
65377;SDS011;51982;51.042;13.806;2023-06-26T07:55:09;6.72;;;3.67;;
65377;SDS011;51982;51.042;13.806;2023-06-26T07:57:34;6.25;;;3.92;;
65377;SDS011;51982;51.042;13.806;2023-06-26T08:00:00;4.88;;;3.80;;
65377;SDS011;51982;51.042;13.806;2023-06-26T08:02:25;5.03;;;3.67;;
65377;SDS011;51982;51.042;13.806;2023-06-26T08:04:50;5.50;;;3.73;;
65377;SDS011;51982;51.042;13.806;2023-06-26T08:07:15;5.77;;;3.80;;
65377;SDS011;51982;51.042;13.806;2023-06-26T08:09:41;5.70;;;3.93;;
65377;SDS011;51982;51.042;13.806;2023-06-26T08:12:06;5.63;;;3.80;;
65377;SDS011;51982;51.042;13.806;2023-06-26T08:14:32;4.65;;;3.97;;
65377;SDS011;51982;51.042;13.806;2023-06-26T08:16:57;4.90;;;3.87;;
65377;SDS011;51982;51.042;13.806;2023-06-26T08:19:24;5.25;;;3.85;;
65377;SDS011;51982;51.042;13.806;2023-06-26T08:21:50;6.95;;;4.00;;
65377;SDS011;51982;51.042;13.806;2023-06-26T08:24:15;5.17;;;3.80;;
65377;SDS011;51982;51.042;13.806;2023-06-26T08:26:42;4.93;;;3.60;;
65377;SDS011;51982;51.042;13.806;2023-06-26T08:29:07;4.93;;;3.73;;
65377;SDS011;51982;51.042;13.806;2023-06-26T08:31:36;6.35;;;4.10;;
65377;SDS011;51982;51.042;13.806;2023-06-26T08:34:02;4.00;;;3.30;;
65377;SDS011;51982;51.042;13.806;2023-06-26T08:36:28;5.50;;;4.03;;
65377;SDS011;51982;51.042;13.806;2023-06-26T08:38:53;4.82;;;3.80;;
65377;SDS011;51982;51.042;13.806;2023-06-26T08:41:19;4.95;;;3.80;;
65377;SDS011;51982;51.042;13.806;2023-06-26T08:43:44;5.87;;;3.80;;
65377;SDS011;51982;51.042;13.806;2023-06-26T08:46:09;3.80;;;3.20;;
65377;SDS011;51982;51.042;13.806;2023-06-26T08:48:35;5.57;;;4.07;;
65377;SDS011;51982;51.042;13.806;2023-06-26T08:51:04;4.78;;;3.55;;
65377;SDS011;51982;51.042;13.806;2023-06-26T08:53:43;5.07;;;3.72;;
65377;SDS011;51982;51.042;13.806;2023-06-26T08:56:16;7.50;;;3.70;;
65377;SDS011;51982;51.042;13.806;2023-06-26T08:58:43;4.03;;;3.58;;
65377;SDS011;51982;51.042;13.806;2023-06-26T09:01:09;6.00;;;4.05;;
65377;SDS011;51982;51.042;13.806;2023-06-26T09:03:35;7.50;;;4.40;;
65377;SDS011;51982;51.042;13.806;2023-06-26T09:06:00;5.32;;;3.70;;
65377;SDS011;51982;51.042;13.806;2023-06-26T09:08:25;5.30;;;3.67;;
65377;SDS011;51982;51.042;13.806;2023-06-26T09:10:51;6.28;;;3.80;;
65377;SDS011;51982;51.042;13.806;2023-06-26T09:13:18;5.38;;;3.70;;
65377;SDS011;51982;51.042;13.806;2023-06-26T09:15:44;7.53;;;4.03;;
65377;SDS011;51982;51.042;13.806;2023-06-26T09:18:10;4.57;;;3.58;;
65377;SDS011;51982;51.042;13.806;2023-06-26T09:20:36;4.50;;;3.92;;
65377;SDS011;51982;51.042;13.806;2023-06-26T09:23:01;4.95;;;3.47;;
65377;SDS011;51982;51.042;13.806;2023-06-26T09:25:30;4.90;;;3.70;;
65377;SDS011;51982;51.042;13.806;2023-06-26T09:27:56;6.22;;;4.28;;
65377;SDS011;51982;51.042;13.806;2023-06-26T09:30:21;5.28;;;3.58;;
65377;SDS011;51982;51.042;13.806;2023-06-26T09:32:47;4.85;;;4.10;;
65377;SDS011;51982;51.042;13.806;2023-06-26T09:35:12;4.63;;;3.83;;
65377;SDS011;51982;51.042;13.806;2023-06-26T09:37:38;5.97;;;3.97;;
65377;SDS011;51982;51.042;13.806;2023-06-26T09:40:03;4.90;;;3.80;;
65377;SDS011;51982;51.042;13.806;2023-06-26T09:42:33;4.68;;;3.72;;
65377;SDS011;51982;51.042;13.806;2023-06-26T09:44:58;4.40;;;3.83;;
65377;SDS011;51982;51.042;13.806;2023-06-26T09:47:23;8.20;;;3.80;;
65377;SDS011;51982;51.042;13.806;2023-06-26T09:49:49;4.28;;;3.60;;
65377;SDS011;51982;51.042;13.806;2023-06-26T09:52:15;5.50;;;3.90;;
65377;SDS011;51982;51.042;13.806;2023-06-26T09:54:41;6.20;;;4.25;;
65377;SDS011;51982;51.042;13.806;2023-06-26T09:57:09;5.50;;;4.28;;
65377;SDS011;51982;51.042;13.806;2023-06-26T09:59:35;5.68;;;4.13;;
65377;SDS011;51982;51.042;13.806;2023-06-26T10:02:01;5.93;;;3.85;;
65377;SDS011;51982;51.042;13.806;2023-06-26T10:04:26;5.05;;;3.58;;
65377;SDS011;51982;51.042;13.806;2023-06-26T10:06:52;5.57;;;4.20;;
65377;SDS011;51982;51.042;13.806;2023-06-26T10:09:20;5.10;;;3.75;;
65377;SDS011;51982;51.042;13.806;2023-06-26T10:11:54;6.35;;;3.63;;
65377;SDS011;51982;51.042;13.806;2023-06-26T10:14:23;7.53;;;3.80;;
65377;SDS011;51982;51.042;13.806;2023-06-26T10:16:51;6.85;;;3.70;;
65377;SDS011;51982;51.042;13.806;2023-06-26T10:19:18;4.93;;;4.10;;
65377;SDS011;51982;51.042;13.806;2023-06-26T10:21:51;5.00;;;3.92;;
65377;SDS011;51982;51.042;13.806;2023-06-26T10:24:17;7.90;;;4.25;;
65377;SDS011;51982;51.042;13.806;2023-06-26T10:26:44;7.15;;;4.20;;
65377;SDS011;51982;51.042;13.806;2023-06-26T10:29:13;4.00;;;3.50;;
65377;SDS011;51982;51.042;13.806;2023-06-26T10:31:43;4.30;;;3.47;;
65377;SDS011;51982;51.042;13.806;2023-06-26T10:34:11;7.20;;;3.67;;
65377;SDS011;51982;51.042;13.806;2023-06-26T10:36:36;4.22;;;3.47;;
65377;SDS011;51982;51.042;13.806;2023-06-26T10:39:03;6.00;;;3.60;;
65377;SDS011;51982;51.042;13.806;2023-06-26T10:41:35;4.50;;;3.47;;
65377;SDS011;51982;51.042;13.806;2023-06-26T10:44:11;4.20;;;3.30;;
65377;SDS011;51982;51.042;13.806;2023-06-26T10:46:53;4.88;;;3.83;;
65377;SDS011;51982;51.042;13.806;2023-06-26T10:49:20;6.05;;;3.50;;
65377;SDS011;51982;51.042;13.806;2023-06-26T10:51:47;5.30;;;3.35;;
65377;SDS011;51982;51.042;13.806;2023-06-26T10:54:18;8.13;;;3.40;;
65377;SDS011;51982;51.042;13.806;2023-06-26T10:56:45;6.13;;;4.18;;
65377;SDS011;51982;51.042;13.806;2023-06-26T10:59:16;4.60;;;3.70;;
65377;SDS011;51982;51.042;13.806;2023-06-26T11:01:43;5.50;;;3.40;;
65377;SDS011;51982;51.042;13.806;2023-06-26T11:04:09;6.35;;;3.63;;
65377;SDS011;51982;51.042;13.806;2023-06-26T11:06:39;5.88;;;3.13;;
65377;SDS011;51982;51.042;13.806;2023-06-26T11:14:22;4.55;;;3.20;;
65377;SDS011;51982;51.042;13.806;2023-06-26T11:16:48;4.68;;;3.20;;
65377;SDS011;51982;51.042;13.806;2023-06-26T11:19:14;6.93;;;3.58;;
65377;SDS011;51982;51.042;13.806;2023-06-26T11:21:41;3.65;;;3.10;;
65377;SDS011;51982;51.042;13.806;2023-06-26T11:24:07;4.93;;;3.30;;
65377;SDS011;51982;51.042;13.806;2023-06-26T11:26:39;4.43;;;3.25;;
65377;SDS011;51982;51.042;13.806;2023-06-26T11:29:06;4.70;;;3.20;;
65377;SDS011;51982;51.042;13.806;2023-06-26T11:34:02;4.47;;;3.50;;
65377;SDS011;51982;51.042;13.806;2023-06-26T11:36:28;4.43;;;3.72;;
65377;SDS011;51982;51.042;13.806;2023-06-26T11:38:58;5.80;;;3.63;;
65377;SDS011;51982;51.042;13.806;2023-06-26T11:41:28;5.85;;;3.53;;
65377;SDS011;51982;51.042;13.806;2023-06-26T11:43:55;5.95;;;3.97;;
65377;SDS011;51982;51.042;13.806;2023-06-26T11:46:21;5.60;;;3.42;;
65377;SDS011;51982;51.042;13.806;2023-06-26T11:48:47;4.55;;;3.53;;
65377;SDS011;51982;51.042;13.806;2023-06-26T11:51:13;4.78;;;3.40;;
65377;SDS011;51982;51.042;13.806;2023-06-26T11:53:40;5.28;;;3.55;;
65377;SDS011;51982;51.042;13.806;2023-06-26T11:56:07;5.22;;;3.45;;
65377;SDS011;51982;51.042;13.806;2023-06-26T11:58:36;5.18;;;3.40;;
65377;SDS011;51982;51.042;13.806;2023-06-26T12:01:02;7.15;;;3.60;;
65377;SDS011;51982;51.042;13.806;2023-06-26T12:03:28;4.50;;;3.60;;
65377;SDS011;51982;51.042;13.806;2023-06-26T12:05:54;6.38;;;3.60;;
65377;SDS011;51982;51.042;13.806;2023-06-26T12:08:19;8.95;;;3.55;;
65377;SDS011;51982;51.042;13.806;2023-06-26T12:10:45;3.70;;;3.20;;
65377;SDS011;51982;51.042;13.806;2023-06-26T12:13:10;4.90;;;3.20;;
65377;SDS011;51982;51.042;13.806;2023-06-26T12:15:35;4.00;;;3.45;;
65377;SDS011;51982;51.042;13.806;2023-06-26T12:18:07;4.68;;;3.15;;
65377;SDS011;51982;51.042;13.806;2023-06-26T12:20:33;4.40;;;3.50;;
65377;SDS011;51982;51.042;13.806;2023-06-26T12:22:58;4.80;;;3.20;;
65377;SDS011;51982;51.042;13.806;2023-06-26T12:25:23;5.05;;;3.20;;
65377;SDS011;51982;51.042;13.806;2023-06-26T12:27:49;5.10;;;3.30;;
65377;SDS011;51982;51.042;13.806;2023-06-26T12:30:14;3.17;;;2.70;;
65377;SDS011;51982;51.042;13.806;2023-06-26T12:32:40;4.68;;;3.78;;
65377;SDS011;51982;51.042;13.806;2023-06-26T12:35:10;9.02;;;3.28;;
65377;SDS011;51982;51.042;13.806;2023-06-26T12:37:38;4.43;;;3.40;;
65377;SDS011;51982;51.042;13.806;2023-06-26T12:40:17;7.60;;;3.50;;
65377;SDS011;51982;51.042;13.806;2023-06-26T12:42:44;3.88;;;3.28;;
65377;SDS011;51982;51.042;13.806;2023-06-26T12:45:11;7.10;;;3.22;;
65377;SDS011;51982;51.042;13.806;2023-06-26T12:47:37;8.50;;;3.30;;
65377;SDS011;51982;51.042;13.806;2023-06-26T12:50:04;5.07;;;3.60;;
65377;SDS011;51982;51.042;13.806;2023-06-26T12:52:30;4.70;;;3.40;;
65377;SDS011;51982;51.042;13.806;2023-06-26T12:54:55;10.67;;;3.77;;
65377;SDS011;51982;51.042;13.806;2023-06-26T12:57:21;7.78;;;3.65;;
65377;SDS011;51982;51.042;13.806;2023-06-26T12:59:46;5.38;;;3.92;;
65377;SDS011;51982;51.042;13.806;2023-06-26T13:02:12;6.53;;;3.45;;
65377;SDS011;51982;51.042;13.806;2023-06-26T13:04:37;5.70;;;3.40;;
65377;SDS011;51982;51.042;13.806;2023-06-26T13:07:05;4.45;;;3.38;;
65377;SDS011;51982;51.042;13.806;2023-06-26T13:09:32;4.97;;;3.55;;
65377;SDS011;51982;51.042;13.806;2023-06-26T13:11:58;5.25;;;3.60;;
65377;SDS011;51982;51.042;13.806;2023-06-26T13:14:23;6.40;;;3.50;;
65377;SDS011;51982;51.042;13.806;2023-06-26T13:16:49;5.23;;;3.40;;
65377;SDS011;51982;51.042;13.806;2023-06-26T13:19:14;6.27;;;3.50;;
65377;SDS011;51982;51.042;13.806;2023-06-26T13:21:39;6.70;;;3.83;;
65377;SDS011;51982;51.042;13.806;2023-06-26T13:24:04;8.73;;;3.97;;
65377;SDS011;51982;51.042;13.806;2023-06-26T13:26:30;7.47;;;3.97;;
65377;SDS011;51982;51.042;13.806;2023-06-26T13:28:56;5.72;;;3.70;;
65377;SDS011;51982;51.042;13.806;2023-06-26T13:31:21;8.33;;;3.73;;
65377;SDS011;51982;51.042;13.806;2023-06-26T13:33:47;5.45;;;3.90;;
65377;SDS011;51982;51.042;13.806;2023-06-26T13:36:17;5.00;;;3.88;;
65377;SDS011;51982;51.042;13.806;2023-06-26T13:38:42;5.15;;;3.50;;
65377;SDS011;51982;51.042;13.806;2023-06-26T13:41:07;4.27;;;3.87;;
65377;SDS011;51982;51.042;13.806;2023-06-26T13:43:32;4.90;;;3.80;;
65377;SDS011;51982;51.042;13.806;2023-06-26T13:45:58;5.70;;;3.63;;
65377;SDS011;51982;51.042;13.806;2023-06-26T13:48:23;6.78;;;3.67;;
65377;SDS011;51982;51.042;13.806;2023-06-26T13:50:52;6.07;;;3.33;;
65377;SDS011;51982;51.042;13.806;2023-06-26T13:53:17;4.97;;;3.63;;
65377;SDS011;51982;51.042;13.806;2023-06-26T13:55:43;4.82;;;3.90;;
65377;SDS011;51982;51.042;13.806;2023-06-26T13:58:09;4.55;;;3.65;;
65377;SDS011;51982;51.042;13.806;2023-06-26T14:00:36;5.00;;;3.85;;
65377;SDS011;51982;51.042;13.806;2023-06-26T14:03:02;9.13;;;3.80;;
65377;SDS011;51982;51.042;13.806;2023-06-26T14:05:32;7.97;;;4.15;;
65377;SDS011;51982;51.042;13.806;2023-06-26T14:07:57;5.80;;;3.53;;
65377;SDS011;51982;51.042;13.806;2023-06-26T14:10:22;5.27;;;4.00;;
65377;SDS011;51982;51.042;13.806;2023-06-26T14:12:48;5.15;;;3.45;;
65377;SDS011;51982;51.042;13.806;2023-06-26T14:15:14;7.15;;;3.70;;
65377;SDS011;51982;51.042;13.806;2023-06-26T14:17:39;4.68;;;3.78;;
65377;SDS011;51982;51.042;13.806;2023-06-26T14:20:07;4.45;;;3.60;;
65377;SDS011;51982;51.042;13.806;2023-06-26T14:22:41;5.13;;;3.70;;
65377;SDS011;51982;51.042;13.806;2023-06-26T14:25:08;5.65;;;3.80;;
65377;SDS011;51982;51.042;13.806;2023-06-26T14:27:34;5.28;;;3.90;;
65377;SDS011;51982;51.042;13.806;2023-06-26T14:30:00;5.78;;;3.55;;
65377;SDS011;51982;51.042;13.806;2023-06-26T14:32:26;4.63;;;3.63;;
65377;SDS011;51982;51.042;13.806;2023-06-26T14:34:51;5.63;;;3.75;;